Terminal Aerodrome Forecast
Issued by NWS Jacksonville, FL

Home | Current Version | Previous Version | Text Only | Print | Product List | Glossary On
Versions: 1 2 3 4 5 6 7 8 9 10 11 12 13 14 15 16 17 18 19 20 21 22 23
000
FTUS42 KJAX 280536
TAFJAX
TAF
KJAX 280536Z 2806/2906 00000KT P6SM FEW025 SCT250
      TEMPO 2809/2813 1SM BR BKN003
     FM281300 01004KT P6SM SCT025
     FM281600 04005KT P6SM VCSH SCT030
     FM281800 07007KT P6SM VCTS SCT040CB
     FM282300 09006KT P6SM SCT250=

USA.gov is the U.S. government's official web portal to all federal, state and local government web resources and services.